createdAt,value
2023-05-19T00:02:26.147Z,12.81
2023-05-19T00:04:53.202Z,12.79
2023-05-19T00:07:23.758Z,12.78
2023-05-19T00:09:50.965Z,12.77
2023-05-19T00:12:17.811Z,12.76
2023-05-19T00:14:44.596Z,12.74
2023-05-19T00:17:11.444Z,12.74
2023-05-19T00:19:38.207Z,12.71
2023-05-19T00:22:05.285Z,12.71
2023-05-19T00:24:32.082Z,12.69
2023-05-19T00:26:58.639Z,12.68
2023-05-19T00:29:25.315Z,12.67
2023-05-19T00:31:51.896Z,12.64
2023-05-19T00:34:18.491Z,12.62
2023-05-19T00:36:45.034Z,12.60
2023-05-19T00:39:11.679Z,12.58
2023-05-19T00:41:38.277Z,12.57
2023-05-19T00:44:05.006Z,12.56
2023-05-19T00:46:31.600Z,12.55
2023-05-19T00:48:58.213Z,12.51
2023-05-19T00:54:17.254Z,12.47
2023-05-19T00:56:43.757Z,12.42
2023-05-19T00:59:10.417Z,12.36
2023-05-19T01:01:37.252Z,12.33
2023-05-19T01:04:04.563Z,12.31
2023-05-19T01:06:31.157Z,12.29
2023-05-19T01:08:58.217Z,12.29
2023-05-19T01:11:24.672Z,12.28
2023-05-19T01:13:51.521Z,12.26
2023-05-19T01:16:48.803Z,12.19
2023-05-19T01:19:25.505Z,12.15
2023-05-19T01:22:22.812Z,12.06
2023-05-19T01:25:04.585Z,11.99
2023-05-19T01:27:49.860Z,11.92
2023-05-19T01:30:38.149Z,11.85
2023-05-19T01:33:08.665Z,11.84
2023-05-19T01:35:37.640Z,11.79
2023-05-19T01:38:07.853Z,11.75
2023-05-19T01:40:35.727Z,11.71
2023-05-19T01:43:02.886Z,11.66
2023-05-19T01:45:31.871Z,11.60
2023-05-19T01:48:03.046Z,11.55
2023-05-19T01:50:30.723Z,11.50
2023-05-19T01:52:57.603Z,11.47
2023-05-19T01:55:24.340Z,11.44
2023-05-19T01:58:22.726Z,11.39
2023-05-19T02:00:56.625Z,11.39
2023-05-19T02:03:26.322Z,11.37
2023-05-19T02:06:01.777Z,11.31
2023-05-19T02:08:41.457Z,11.29
2023-05-19T02:11:16.568Z,11.26
2023-05-19T02:13:44.687Z,11.23
2023-05-19T02:16:13.491Z,11.20
2023-05-19T02:18:40.542Z,11.17
2023-05-19T02:21:07.245Z,11.14
2023-05-19T02:23:33.742Z,11.12
2023-05-19T02:26:01.122Z,11.08
2023-05-19T02:28:28.419Z,11.07
2023-05-19T02:30:55.125Z,11.07
2023-05-19T02:33:24.660Z,11.07
2023-05-19T02:35:51.279Z,11.07
2023-05-19T02:38:18.192Z,11.07
2023-05-19T02:40:44.675Z,11.07
2023-05-19T02:43:11.188Z,11.07
2023-05-19T02:45:37.710Z,11.07
2023-05-19T02:48:04.693Z,11.05
2023-05-19T02:50:31.363Z,11.06
2023-05-19T02:52:58.123Z,11.05
2023-05-19T02:55:24.553Z,11.05
2023-05-19T02:57:51.347Z,11.05
2023-05-19T03:00:17.938Z,11.05
2023-05-19T03:02:44.521Z,11.05
2023-05-19T03:05:11.397Z,11.07
2023-05-19T03:07:37.880Z,11.05
2023-05-19T03:10:06.492Z,11.06
2023-05-19T03:12:33.621Z,11.04
2023-05-19T03:15:01.057Z,11.05
2023-05-19T03:17:28.631Z,11.03
2023-05-19T03:19:55.731Z,11.01
2023-05-19T03:22:22.299Z,11.00
2023-05-19T03:24:51.139Z,10.97
2023-05-19T03:27:17.812Z,10.91
2023-05-19T03:29:44.273Z,10.88
2023-05-19T03:32:10.883Z,10.85
2023-05-19T03:34:37.509Z,10.81
2023-05-19T03:37:04.153Z,10.80
2023-05-19T03:39:30.934Z,10.78
2023-05-19T03:41:57.501Z,10.76
2023-05-19T03:44:24.181Z,10.72
2023-05-19T03:46:50.791Z,10.71
2023-05-19T03:49:18.584Z,10.67
2023-05-19T03:51:45.038Z,10.66
2023-05-19T03:54:11.520Z,10.65
2023-05-19T03:56:40.071Z,10.62
2023-05-19T03:59:07.275Z,10.64
2023-05-19T04:01:33.865Z,10.64
2023-05-19T04:04:00.404Z,10.63
2023-05-19T04:06:27.026Z,10.63
2023-05-19T04:08:53.510Z,10.65
2023-05-19T04:11:20.297Z,10.66
2023-05-19T04:13:46.861Z,10.66
2023-05-19T04:16:13.924Z,10.66
2023-05-19T04:18:40.577Z,10.66
2023-05-19T04:21:08.716Z,10.66
2023-05-19T04:23:35.166Z,10.67
2023-05-19T04:26:02.425Z,10.67
2023-05-19T04:28:29.939Z,10.66
2023-05-19T04:30:58.711Z,10.65
2023-05-19T04:33:25.386Z,10.66
2023-05-19T04:35:51.938Z,10.67
2023-05-19T04:38:19.983Z,10.68
2023-05-19T04:40:46.475Z,10.69
2023-05-19T04:43:13.066Z,10.71
2023-05-19T04:45:42.493Z,10.73
2023-05-19T04:48:09.163Z,10.77
2023-05-19T04:50:38.537Z,10.80
2023-05-19T04:53:05.054Z,10.82
2023-05-19T04:55:32.827Z,10.85
2023-05-19T04:57:59.291Z,10.88
2023-05-19T05:00:25.970Z,10.90
2023-05-19T05:02:52.502Z,10.92
2023-05-19T05:05:19.037Z,10.94
2023-05-19T05:07:45.965Z,10.96
2023-05-19T05:10:12.493Z,11.00
2023-05-19T05:12:39.234Z,11.02
2023-05-19T05:15:07.039Z,11.05
2023-05-19T05:17:35.487Z,11.11
2023-05-19T05:20:04.697Z,11.15
2023-05-19T05:22:31.474Z,11.20
2023-05-19T05:24:58.263Z,11.24
2023-05-19T05:27:24.818Z,11.31
2023-05-19T05:29:52.629Z,11.36
2023-05-19T05:32:19.187Z,11.43
2023-05-19T05:34:45.932Z,11.48
2023-05-19T05:37:14.603Z,11.54
2023-05-19T05:39:41.790Z,11.60
2023-05-19T05:42:11.318Z,11.65
2023-05-19T05:44:37.777Z,11.72
2023-05-19T05:47:04.837Z,11.78
2023-05-19T05:49:31.677Z,11.84
2023-05-19T05:52:05.729Z,11.92
2023-05-19T05:54:33.332Z,11.98
2023-05-19T05:57:00.074Z,12.05
2023-05-19T05:59:26.640Z,12.10
2023-05-19T06:01:53.111Z,12.17
2023-05-19T06:04:21.037Z,12.24
2023-05-19T06:06:47.754Z,12.29
2023-05-19T06:09:14.286Z,12.36
2023-05-19T06:11:40.993Z,12.42
2023-05-19T06:14:07.474Z,12.49
2023-05-19T06:16:34.100Z,12.56
2023-05-19T06:19:00.635Z,12.62
2023-05-19T06:21:27.201Z,12.68
2023-05-19T06:23:54.227Z,12.75
2023-05-19T06:26:20.932Z,12.81
2023-05-19T06:28:47.390Z,12.87
2023-05-19T06:31:13.916Z,12.96
2023-05-19T06:33:41.960Z,13.01
2023-05-19T06:36:10.059Z,13.06
2023-05-19T06:38:36.611Z,13.12
2023-05-19T06:41:03.092Z,13.18
2023-05-19T06:43:30.305Z,13.23
2023-05-19T06:45:57.017Z,13.28
2023-05-19T06:48:23.568Z,13.33
2023-05-19T06:50:51.050Z,13.39
2023-05-19T06:53:19.809Z,13.45
2023-05-19T06:55:58.139Z,13.52
2023-05-19T06:58:26.812Z,13.57
2023-05-19T07:00:53.809Z,13.63
2023-05-19T07:03:20.691Z,13.67
2023-05-19T07:05:47.582Z,13.74
2023-05-19T07:08:14.052Z,13.81
2023-05-19T07:10:40.541Z,13.89
2023-05-19T07:13:07.111Z,13.94
2023-05-19T07:15:33.854Z,14.00
2023-05-19T07:18:00.600Z,14.07
2023-05-19T07:20:27.203Z,14.15
2023-05-19T07:22:53.805Z,14.25
2023-05-19T07:25:20.652Z,14.32
2023-05-19T07:27:47.490Z,14.40
2023-05-19T07:30:14.067Z,14.50
2023-05-19T07:32:40.815Z,14.58
2023-05-19T07:35:07.700Z,14.68
2023-05-19T07:37:34.368Z,14.77
2023-05-19T07:40:01.025Z,14.87
2023-05-19T07:42:27.554Z,14.97
2023-05-19T07:44:54.109Z,15.09
2023-05-19T07:47:20.793Z,15.19
2023-05-19T07:49:49.096Z,15.30
2023-05-19T07:52:18.317Z,15.41
2023-05-19T07:54:46.131Z,15.52
2023-05-19T07:57:12.672Z,15.62
2023-05-19T07:59:39.143Z,15.72
2023-05-19T08:02:06.406Z,15.82
2023-05-19T08:04:33.090Z,15.92
2023-05-19T08:06:59.843Z,16.04
2023-05-19T08:09:26.643Z,16.13
2023-05-19T08:11:53.477Z,16.24
2023-05-19T08:14:22.711Z,16.34
2023-05-19T08:16:50.122Z,16.47
2023-05-19T08:19:16.774Z,16.57
2023-05-19T08:21:45.163Z,16.67
2023-05-19T08:24:11.899Z,16.78
2023-05-19T08:26:38.443Z,16.91
2023-05-19T08:29:05.512Z,17.00
2023-05-19T08:31:32.578Z,17.12
2023-05-19T08:33:59.296Z,17.24
2023-05-19T08:36:25.963Z,17.36
2023-05-19T08:38:52.525Z,17.48
2023-05-19T08:41:19.312Z,17.60
2023-05-19T08:43:45.960Z,17.72
2023-05-19T08:46:15.051Z,17.83
2023-05-19T08:48:43.105Z,17.93
2023-05-19T08:51:33.633Z,18.00
2023-05-19T08:54:14.599Z,18.12
2023-05-19T08:56:43.340Z,18.24
2023-05-19T08:59:10.577Z,18.33
2023-05-19T09:04:10.182Z,18.54
2023-05-19T09:06:36.821Z,18.63
2023-05-19T09:09:04.234Z,18.71
2023-05-19T09:11:30.906Z,18.83
2023-05-19T09:13:57.445Z,18.93
2023-05-19T09:16:25.508Z,19.03
2023-05-19T09:18:57.558Z,19.11
2023-05-19T09:21:31.175Z,19.20
2023-05-19T09:24:06.335Z,19.29
2023-05-19T09:26:40.654Z,19.39
2023-05-19T09:29:17.897Z,19.50
2023-05-19T09:32:00.518Z,19.61
2023-05-19T09:34:27.736Z,19.75
2023-05-19T09:36:54.489Z,19.85
2023-05-19T09:39:22.957Z,19.94
2023-05-19T09:41:54.287Z,20.01
2023-05-19T09:44:21.270Z,20.11
2023-05-19T09:46:52.863Z,20.20
2023-05-19T09:49:24.655Z,20.25
2023-05-19T09:51:59.063Z,20.30
2023-05-19T09:54:28.454Z,20.38
2023-05-19T09:57:07.865Z,20.39
2023-05-19T09:59:35.789Z,20.50
2023-05-19T10:02:02.932Z,20.54
2023-05-19T10:04:30.998Z,20.58
2023-05-19T10:07:05.536Z,20.62
2023-05-19T10:09:34.035Z,20.67
2023-05-19T10:12:01.042Z,20.70
2023-05-19T10:14:29.645Z,20.76
2023-05-19T10:16:58.566Z,20.82
2023-05-19T10:19:27.279Z,20.87
2023-05-19T10:21:54.620Z,20.89
2023-05-19T10:24:21.742Z,20.88
2023-05-19T10:26:55.212Z,20.89
2023-05-19T10:29:34.901Z,20.90
2023-05-19T10:32:08.193Z,20.96
2023-05-19T10:34:57.147Z,20.98
2023-05-19T10:37:50.575Z,21.03
2023-05-19T10:40:25.914Z,21.16
2023-05-19T10:43:20.321Z,21.37
2023-05-19T10:45:54.348Z,21.67
2023-05-19T10:48:22.574Z,22.03
2023-05-19T10:50:52.919Z,22.42
2023-05-19T10:53:22.476Z,22.88
2023-05-19T10:55:56.314Z,23.41
2023-05-19T10:58:45.381Z,23.93
2023-05-19T11:01:16.943Z,24.40
2023-05-19T11:03:54.294Z,24.69
2023-05-19T11:06:29.601Z,25.00
2023-05-19T11:09:16.543Z,25.31
2023-05-19T11:11:48.377Z,25.52
2023-05-19T11:14:21.492Z,25.70
2023-05-19T11:16:49.732Z,25.89
2023-05-19T11:19:28.499Z,25.89
2023-05-19T11:21:56.451Z,25.84
2023-05-19T11:24:44.763Z,25.56
2023-05-19T11:27:38.522Z,25.46
2023-05-19T11:30:14.810Z,25.58
2023-05-19T11:32:42.852Z,25.80
2023-05-19T11:35:10.224Z,25.98
2023-05-19T11:37:37.178Z,26.23
2023-05-19T11:40:06.991Z,26.47
2023-05-19T11:42:34.909Z,26.64
2023-05-19T11:45:01.830Z,26.69
2023-05-19T11:47:28.556Z,26.60
2023-05-19T11:49:56.785Z,26.43
2023-05-19T11:52:29.483Z,26.25
2023-05-19T11:54:56.893Z,26.23
2023-05-19T11:57:23.431Z,26.40
2023-05-19T11:59:52.285Z,26.63
2023-05-19T12:02:21.421Z,26.92
2023-05-19T12:04:49.440Z,27.14
2023-05-19T12:07:19.975Z,27.18
2023-05-19T12:09:47.339Z,27.05
2023-05-19T12:12:19.118Z,26.82
2023-05-19T12:14:52.827Z,26.52
2023-05-19T12:17:20.948Z,26.29
2023-05-19T12:19:48.983Z,26.11
2023-05-19T12:22:17.228Z,26.07
2023-05-19T12:24:45.135Z,26.14
2023-05-19T12:27:23.153Z,26.21
2023-05-19T12:29:54.156Z,26.19
2023-05-19T12:32:28.880Z,26.01
2023-05-19T12:34:58.827Z,25.80
2023-05-19T12:37:30.158Z,25.59
2023-05-19T12:39:57.647Z,25.54
2023-05-19T12:42:31.234Z,25.54
2023-05-19T12:45:00.881Z,25.60
2023-05-19T12:47:34.888Z,25.72
2023-05-19T12:50:05.412Z,25.99
2023-05-19T12:52:35.513Z,26.31
2023-05-19T12:55:11.196Z,26.50
2023-05-19T12:57:39.160Z,26.54
2023-05-19T13:00:13.854Z,26.40
2023-05-19T13:03:04.839Z,26.14
2023-05-19T13:05:33.802Z,25.99
2023-05-19T13:08:04.931Z,25.93
2023-05-19T13:10:32.158Z,26.09
2023-05-19T13:13:00.320Z,26.43
2023-05-19T13:15:31.686Z,26.91
2023-05-19T13:17:58.674Z,27.44
2023-05-19T13:20:27.648Z,27.94
2023-05-19T13:22:55.967Z,28.46
2023-05-19T13:25:22.703Z,28.98
2023-05-19T13:27:49.632Z,29.47
2023-05-19T13:30:16.418Z,29.91
2023-05-19T13:32:43.010Z,30.22
2023-05-19T13:35:10.391Z,30.29
2023-05-19T13:37:36.945Z,30.13
2023-05-19T13:40:03.707Z,29.96
2023-05-19T13:42:31.787Z,29.91
2023-05-19T13:44:58.341Z,30.00
2023-05-19T13:47:24.982Z,30.12
2023-05-19T13:49:51.968Z,30.13
2023-05-19T13:52:20.618Z,29.98
2023-05-19T13:54:48.469Z,29.81
2023-05-19T13:57:15.893Z,29.77
2023-05-19T13:59:57.762Z,29.91
2023-05-19T14:02:27.380Z,30.20
2023-05-19T14:04:54.307Z,30.49
2023-05-19T14:07:21.156Z,30.78
2023-05-19T14:09:47.771Z,30.99
2023-05-19T14:12:14.378Z,31.11
2023-05-19T14:14:40.943Z,31.07
2023-05-19T14:17:07.483Z,30.90
2023-05-19T14:19:34.007Z,30.63
2023-05-19T14:22:00.466Z,30.39
2023-05-19T14:24:26.979Z,30.35
2023-05-19T14:26:53.803Z,30.42
2023-05-19T14:29:20.307Z,30.49
2023-05-19T14:31:46.980Z,30.37
2023-05-19T14:34:17.765Z,30.06
2023-05-19T14:36:44.652Z,29.66
2023-05-19T14:39:11.888Z,29.35
2023-05-19T14:41:38.444Z,29.11
2023-05-19T14:44:05.558Z,28.88
2023-05-19T14:46:32.577Z,28.59
2023-05-19T14:48:59.072Z,28.32
2023-05-19T14:51:25.746Z,28.21
2023-05-19T14:53:52.292Z,28.29
2023-05-19T14:56:18.728Z,28.44
2023-05-19T14:58:45.206Z,28.52
2023-05-19T15:01:11.840Z,28.43
2023-05-19T15:03:38.410Z,28.18
2023-05-19T15:06:09.336Z,27.81
2023-05-19T15:08:37.689Z,27.43
2023-05-19T15:11:04.678Z,27.06
2023-05-19T15:13:31.309Z,26.90
2023-05-19T15:16:12.428Z,26.96
2023-05-19T15:18:41.956Z,27.29
2023-05-19T15:21:08.484Z,27.74
2023-05-19T15:23:34.956Z,28.26
2023-05-19T15:26:01.488Z,28.79
2023-05-19T15:28:28.017Z,29.21
2023-05-19T15:30:54.561Z,29.37
2023-05-19T15:33:21.228Z,29.30
2023-05-19T15:35:51.522Z,29.02
2023-05-19T15:38:19.503Z,28.60
2023-05-19T15:40:46.726Z,28.15
2023-05-19T15:43:13.560Z,27.72
2023-05-19T15:45:40.800Z,27.45
2023-05-19T15:48:07.571Z,27.38
2023-05-19T15:50:34.404Z,27.49
2023-05-19T15:53:01.054Z,27.68
2023-05-19T15:55:27.608Z,27.93
2023-05-19T15:57:54.177Z,28.21
2023-05-19T16:00:20.814Z,28.49
2023-05-19T16:02:47.397Z,28.75
2023-05-19T16:05:13.962Z,29.02
2023-05-19T16:07:42.084Z,29.17
2023-05-19T16:10:09.074Z,29.17
2023-05-19T16:12:36.715Z,28.97
2023-05-19T16:15:03.806Z,28.68
2023-05-19T16:17:30.653Z,28.33
2023-05-19T16:19:57.259Z,27.94
2023-05-19T16:22:24.892Z,27.59
2023-05-19T16:24:52.297Z,27.26
2023-05-19T16:27:19.176Z,26.93
2023-05-19T16:29:45.889Z,26.58
2023-05-19T16:32:12.790Z,26.21
2023-05-19T16:34:39.542Z,25.83
2023-05-19T16:37:06.097Z,25.45
2023-05-19T16:39:32.685Z,25.10
2023-05-19T16:41:59.197Z,24.82
2023-05-19T16:44:26.078Z,24.62
2023-05-19T16:46:52.591Z,24.52
2023-05-19T16:49:19.124Z,24.49
2023-05-19T16:51:46.823Z,24.47
2023-05-19T16:54:14.719Z,24.45
2023-05-19T16:56:41.263Z,24.38
2023-05-19T16:59:09.555Z,24.25
2023-05-19T17:01:36.134Z,24.10
2023-05-19T17:04:02.764Z,23.90
2023-05-19T17:06:29.859Z,23.70
2023-05-19T17:08:56.459Z,23.53
2023-05-19T17:11:22.929Z,23.35
2023-05-19T17:13:49.427Z,23.21
2023-05-19T17:16:16.053Z,23.08
2023-05-19T17:18:43.668Z,22.97
2023-05-19T17:21:10.611Z,22.87
2023-05-19T17:23:37.846Z,22.77
2023-05-19T17:26:04.557Z,22.68
2023-05-19T17:28:31.090Z,22.59
2023-05-19T17:30:57.755Z,22.51
2023-05-19T17:33:24.425Z,22.44
2023-05-19T17:35:51.038Z,22.36
2023-05-19T17:38:17.648Z,22.30
2023-05-19T17:40:44.421Z,22.22
2023-05-19T17:43:11.167Z,22.16
2023-05-19T17:45:37.661Z,22.06
2023-05-19T17:48:04.836Z,22.02
2023-05-19T17:50:31.540Z,21.95
2023-05-19T17:52:58.564Z,21.89
2023-05-19T17:55:29.736Z,21.82
2023-05-19T17:57:57.359Z,21.78
2023-05-19T18:00:25.174Z,21.72
2023-05-19T18:02:52.254Z,21.66
2023-05-19T18:05:19.335Z,21.61
2023-05-19T18:07:46.160Z,21.56
2023-05-19T18:10:16.187Z,21.50
2023-05-19T18:12:42.664Z,21.41
2023-05-19T18:15:09.521Z,21.31
2023-05-19T18:17:36.111Z,21.22
2023-05-19T18:20:02.782Z,21.13
2023-05-19T18:22:29.337Z,21.04
2023-05-19T18:24:57.636Z,20.96
2023-05-19T18:27:24.185Z,20.91
2023-05-19T18:29:50.683Z,20.83
2023-05-19T18:32:17.745Z,20.77
2023-05-19T18:34:44.341Z,20.71
2023-05-19T18:37:10.855Z,20.65
2023-05-19T18:39:37.509Z,20.60
2023-05-19T18:42:04.376Z,20.55
2023-05-19T18:44:31.120Z,20.48
2023-05-19T18:46:57.711Z,20.43
2023-05-19T18:49:25.107Z,20.37
2023-05-19T18:51:52.027Z,20.31
2023-05-19T18:56:48.090Z,20.22
2023-05-19T18:59:14.700Z,20.15
2023-05-19T19:01:41.427Z,20.10
2023-05-19T19:04:08.309Z,20.03
2023-05-19T19:06:34.961Z,19.98
2023-05-19T19:09:01.499Z,19.92
2023-05-19T19:11:28.092Z,19.87
2023-05-19T19:13:56.573Z,19.81
2023-05-19T19:16:23.305Z,19.75
2023-05-19T19:18:50.119Z,19.71
2023-05-19T19:21:19.251Z,19.70
2023-05-19T19:23:45.880Z,19.64
2023-05-19T19:26:12.402Z,19.60
2023-05-19T19:28:38.957Z,19.56
2023-05-19T19:31:05.545Z,19.52
2023-05-19T19:33:32.156Z,19.48
2023-05-19T19:35:58.718Z,19.44
2023-05-19T19:38:25.180Z,19.37
2023-05-19T19:40:52.485Z,19.34
2023-05-19T19:43:19.258Z,19.28
2023-05-19T19:45:45.747Z,19.23
2023-05-19T19:48:12.499Z,19.19
2023-05-19T19:50:41.899Z,19.12
2023-05-19T19:53:08.866Z,19.06
2023-05-19T19:55:35.555Z,18.99
2023-05-19T19:58:02.122Z,18.92
2023-05-19T20:00:28.621Z,18.83
2023-05-19T20:03:05.061Z,18.76
2023-05-19T20:05:32.396Z,18.69
2023-05-19T20:07:59.038Z,18.63
2023-05-19T20:10:25.554Z,18.57
2023-05-19T20:12:52.354Z,18.52
2023-05-19T20:15:18.956Z,18.47
2023-05-19T20:17:45.770Z,18.40
2023-05-19T20:20:12.840Z,18.33
2023-05-19T20:22:39.704Z,18.26
2023-05-19T20:25:06.613Z,18.20
2023-05-19T20:27:33.178Z,18.15
2023-05-19T20:29:59.791Z,18.08
2023-05-19T20:32:26.401Z,18.04
2023-05-19T20:34:53.010Z,17.97
2023-05-19T20:37:20.973Z,17.92
2023-05-19T20:39:47.818Z,17.89
2023-05-19T20:42:14.336Z,17.84
2023-05-19T20:44:41.028Z,17.80
2023-05-19T20:47:08.243Z,17.77
2023-05-19T20:49:35.041Z,17.73
2023-05-19T20:52:01.640Z,17.68
2023-05-19T20:54:28.240Z,17.67
2023-05-19T20:56:54.801Z,17.64
2023-05-19T20:59:21.421Z,17.62
2023-05-19T21:01:48.064Z,17.61
2023-05-19T21:04:14.777Z,17.58
2023-05-19T21:06:41.337Z,17.56
2023-05-19T21:09:07.974Z,17.53
2023-05-19T21:11:34.570Z,17.52
2023-05-19T21:14:03.893Z,17.49
2023-05-19T21:16:31.205Z,17.47
2023-05-19T21:18:57.882Z,17.47
2023-05-19T21:21:24.572Z,17.44
2023-05-19T21:23:51.086Z,17.42
2023-05-19T21:26:17.979Z,17.40
2023-05-19T21:28:44.546Z,17.38
2023-05-19T21:31:11.316Z,17.37
2023-05-19T21:33:37.887Z,17.37
2023-05-19T21:36:04.732Z,17.36
2023-05-19T21:38:31.371Z,17.35
2023-05-19T21:40:58.015Z,17.34
2023-05-19T21:43:24.578Z,17.32
2023-05-19T21:45:51.102Z,17.34
2023-05-19T21:48:17.881Z,17.35
2023-05-19T21:50:44.572Z,17.34
2023-05-19T21:53:11.086Z,17.35
2023-05-19T21:55:37.740Z,17.36
2023-05-19T21:58:04.345Z,17.35
2023-05-19T22:00:30.916Z,17.35
2023-05-19T22:02:57.520Z,17.34
2023-05-19T22:05:24.099Z,17.32
2023-05-19T22:07:50.668Z,17.31
2023-05-19T22:10:17.409Z,17.27
2023-05-19T22:12:43.926Z,17.28
2023-05-19T22:15:11.421Z,17.26
2023-05-19T22:17:37.925Z,17.25
2023-05-19T22:20:05.382Z,17.26
2023-05-19T22:22:31.852Z,17.27
2023-05-19T22:24:58.613Z,17.27
2023-05-19T22:27:25.146Z,17.27
2023-05-19T22:29:51.624Z,17.26
2023-05-19T22:32:19.478Z,17.26
2023-05-19T22:34:46.320Z,17.24
2023-05-19T22:37:13.036Z,17.22
2023-05-19T22:39:39.607Z,17.19
2023-05-19T22:42:06.187Z,17.16
2023-05-19T22:44:32.690Z,17.13
2023-05-19T22:46:59.212Z,17.12
2023-05-19T22:49:27.357Z,17.09
2023-05-19T22:51:53.918Z,17.09
2023-05-19T22:54:20.503Z,17.07
2023-05-19T22:56:49.050Z,17.06
2023-05-19T22:59:17.933Z,17.08
2023-05-19T23:01:46.477Z,17.07
2023-05-19T23:04:13.964Z,17.09
2023-05-19T23:06:40.783Z,17.09
2023-05-19T23:09:07.699Z,17.09
2023-05-19T23:11:35.852Z,17.09
2023-05-19T23:14:02.577Z,17.10
2023-05-19T23:16:29.185Z,17.09
2023-05-19T23:18:55.866Z,17.08
2023-05-19T23:21:22.474Z,17.05
2023-05-19T23:23:49.767Z,17.03
2023-05-19T23:26:16.469Z,17.01
2023-05-19T23:28:43.284Z,16.98
2023-05-19T23:31:10.169Z,16.95
2023-05-19T23:33:36.807Z,16.92
2023-05-19T23:36:08.284Z,16.87
2023-05-19T23:38:38.071Z,16.84
2023-05-19T23:41:05.170Z,16.79
2023-05-19T23:43:34.799Z,16.73
2023-05-19T23:46:01.576Z,16.68
2023-05-19T23:48:29.333Z,16.62
2023-05-19T23:50:56.919Z,16.56
2023-05-19T23:53:23.787Z,16.50
2023-05-19T23:55:51.381Z,16.47
2023-05-19T23:58:18.153Z,16.41
